createdAt,value
2018-01-15T00:01:54.498Z,59.53
2018-01-15T00:04:22.765Z,59.03
2018-01-15T00:06:51.016Z,48.07
2018-01-15T00:09:18.483Z,54.93
2018-01-15T00:11:46.025Z,46.77
2018-01-15T00:14:13.507Z,47.10
2018-01-15T00:16:41.000Z,50.53
2018-01-15T00:19:08.477Z,44.00
2018-01-15T00:21:36.107Z,43.83
2018-01-15T00:24:04.343Z,41.37
2018-01-15T00:26:31.888Z,44.43
2018-01-15T00:28:59.378Z,42.00
2018-01-15T00:31:26.866Z,49.43
2018-01-15T00:33:54.366Z,42.30
2018-01-15T00:36:21.861Z,49.80
2018-01-15T00:38:49.330Z,44.43
2018-01-15T00:41:17.634Z,51.03
2018-01-15T00:43:45.332Z,45.83
2018-01-15T00:46:12.951Z,42.50
2018-01-15T00:48:41.229Z,43.23
2018-01-15T00:51:08.727Z,36.63
2018-01-15T00:53:36.220Z,46.37
2018-01-15T00:56:03.690Z,39.70
2018-01-15T00:58:31.946Z,37.27
2018-01-15T01:01:00.198Z,39.13
2018-01-15T01:03:27.681Z,34.67
2018-01-15T01:05:55.398Z,30.03
2018-01-15T01:08:22.873Z,35.57
2018-01-15T01:10:50.356Z,32.27
2018-01-15T01:13:17.857Z,29.80
2018-01-15T01:15:45.329Z,29.83
2018-01-15T01:18:12.813Z,36.23
2018-01-15T01:20:40.277Z,34.83
2018-01-15T01:23:07.758Z,40.33
2018-01-15T01:25:35.244Z,34.80
2018-01-15T01:28:03.241Z,38.97
2018-01-15T01:30:30.736Z,39.87
2018-01-15T01:32:58.248Z,31.27
2018-01-15T01:35:25.740Z,31.37
2018-01-15T01:37:53.208Z,32.50
2018-01-15T01:40:20.697Z,35.40
2018-01-15T01:42:48.172Z,31.40
2018-01-15T01:45:15.668Z,31.40
2018-01-15T01:47:43.287Z,30.10
2018-01-15T01:50:10.791Z,30.40
2018-01-15T01:52:38.255Z,35.60
2018-01-15T01:55:05.717Z,32.90
2018-01-15T01:57:33.336Z,33.40
2018-01-15T02:00:00.826Z,26.70
2018-01-15T02:02:28.347Z,31.67
2018-01-15T02:04:55.833Z,33.20
2018-01-15T02:07:23.526Z,30.67
2018-01-15T02:09:50.999Z,27.33
2018-01-15T02:12:19.995Z,34.37
2018-01-15T02:14:48.243Z,33.50
2018-01-15T02:17:15.746Z,30.97
2018-01-15T02:19:43.980Z,33.40
2018-01-15T02:22:11.466Z,42.63
2018-01-15T02:24:39.702Z,29.07
2018-01-15T02:27:07.193Z,35.27
2018-01-15T02:29:34.665Z,33.37
2018-01-15T02:32:02.936Z,33.03
2018-01-15T02:34:30.418Z,30.97
2018-01-15T02:36:57.923Z,36.20
2018-01-15T02:39:25.445Z,37.13
2018-01-15T02:41:52.942Z,41.20
2018-01-15T02:44:20.438Z,27.30
2018-01-15T02:46:48.702Z,29.87
2018-01-15T02:49:17.689Z,34.07
2018-01-15T02:51:45.199Z,34.83
2018-01-15T02:54:12.697Z,34.60
2018-01-15T02:56:40.197Z,38.87
2018-01-15T02:59:08.453Z,30.47
2018-01-15T03:01:36.703Z,32.67
2018-01-15T03:04:04.616Z,33.30
2018-01-15T03:06:32.862Z,34.50
2018-01-15T03:09:00.330Z,28.90
2018-01-15T03:11:28.590Z,32.83
2018-01-15T03:13:56.058Z,32.37
2018-01-15T03:16:23.555Z,33.30
2018-01-15T03:18:51.742Z,34.60
2018-01-15T03:21:19.262Z,30.37
2018-01-15T03:23:48.049Z,37.53
2018-01-15T03:26:16.306Z,23.67
2018-01-15T03:28:43.777Z,31.47
2018-01-15T03:31:11.269Z,28.27
2018-01-15T03:33:38.737Z,26.13
2018-01-15T03:36:06.214Z,29.70
2018-01-15T03:38:33.720Z,31.33
2018-01-15T03:41:02.055Z,29.87
2018-01-15T03:43:29.534Z,34.47
2018-01-15T03:45:57.005Z,21.73
2018-01-15T03:48:24.659Z,31.50
2018-01-15T03:50:52.149Z,32.70
2018-01-15T03:53:20.431Z,25.53
2018-01-15T03:55:48.666Z,41.30
2018-01-15T03:58:16.143Z,30.30
2018-01-15T04:00:44.426Z,33.97
2018-01-15T04:03:11.948Z,30.13
2018-01-15T04:05:39.410Z,34.10
2018-01-15T04:08:06.892Z,37.03
2018-01-15T04:10:34.358Z,33.37
2018-01-15T04:13:02.632Z,38.00
2018-01-15T04:15:30.088Z,35.50
2018-01-15T04:17:58.771Z,32.37
2018-01-15T04:20:26.254Z,29.83
2018-01-15T04:22:54.494Z,40.30
2018-01-15T04:25:22.043Z,40.10
2018-01-15T04:27:49.534Z,36.37
2018-01-15T04:30:17.786Z,34.37
2018-01-15T04:32:45.306Z,37.10
2018-01-15T04:35:12.817Z,40.20
2018-01-15T04:37:40.298Z,34.23
2018-01-15T04:40:08.554Z,35.33
2018-01-15T04:42:36.021Z,34.87
2018-01-15T04:45:04.278Z,40.90
2018-01-15T04:47:31.880Z,34.47
2018-01-15T04:49:59.364Z,37.00
2018-01-15T04:52:26.852Z,33.23
2018-01-15T04:54:54.327Z,34.53
2018-01-15T04:57:21.810Z,38.47
2018-01-15T04:59:49.289Z,38.93
2018-01-15T05:02:16.793Z,41.20
2018-01-15T05:04:44.278Z,42.37
2018-01-15T05:07:12.522Z,39.60
2018-01-15T05:09:40.134Z,32.63
2018-01-15T05:12:08.188Z,32.27
2018-01-15T05:14:36.428Z,35.67
2018-01-15T05:17:03.910Z,32.97
2018-01-15T05:19:31.378Z,33.37
2018-01-15T05:21:59.616Z,34.80
2018-01-15T05:24:27.114Z,37.43
2018-01-15T05:26:55.391Z,32.67
2018-01-15T05:29:23.667Z,36.07
2018-01-15T05:31:51.894Z,34.07
2018-01-15T05:34:19.439Z,35.70
2018-01-15T05:36:46.929Z,36.83
2018-01-15T05:39:14.620Z,28.87
2018-01-15T05:41:42.906Z,31.40
2018-01-15T05:44:11.178Z,43.00
2018-01-15T05:46:38.652Z,38.90
2018-01-15T05:49:07.001Z,37.63
2018-01-15T05:51:34.482Z,39.50
2018-01-15T05:54:02.726Z,33.87
2018-01-15T05:56:30.205Z,30.43
2018-01-15T05:58:58.479Z,25.40
2018-01-15T06:01:26.037Z,30.80
2018-01-15T06:03:53.505Z,35.10
2018-01-15T06:06:21.763Z,32.20
2018-01-15T06:08:49.237Z,23.80
2018-01-15T06:11:17.490Z,30.93
2018-01-15T06:13:45.021Z,33.23
2018-01-15T06:16:12.529Z,33.80
2018-01-15T06:18:39.988Z,28.40
2018-01-15T06:21:08.242Z,24.60
2018-01-15T06:23:35.714Z,20.93
2018-01-15T06:26:03.208Z,23.40
2018-01-15T06:28:30.703Z,24.93
2018-01-15T06:30:58.933Z,19.90
2018-01-15T06:33:26.444Z,19.63
2018-01-15T06:35:53.966Z,17.93
2018-01-15T06:38:21.581Z,15.63
2018-01-15T06:40:49.058Z,21.40
2018-01-15T06:43:17.320Z,17.83
2018-01-15T06:45:44.791Z,21.40
2018-01-15T06:48:13.176Z,22.13
2018-01-15T06:50:41.421Z,22.03
2018-01-15T06:53:08.916Z,19.93
2018-01-15T06:55:37.157Z,15.70
2018-01-15T06:58:04.633Z,21.73
2018-01-15T07:00:32.113Z,17.67
2018-01-15T07:03:00.342Z,14.27
2018-01-15T07:05:27.840Z,18.57
2018-01-15T07:07:56.052Z,15.67
2018-01-15T07:10:23.550Z,15.70
2018-01-15T07:12:51.027Z,17.03
2018-01-15T07:15:19.264Z,19.50
2018-01-15T07:17:46.741Z,18.30
2018-01-15T07:20:14.241Z,14.83
2018-01-15T07:22:41.708Z,19.50
2018-01-15T07:25:09.196Z,18.73
2018-01-15T07:27:37.478Z,17.40
2018-01-15T07:30:04.956Z,15.57
2018-01-15T07:32:33.203Z,23.70
2018-01-15T07:35:00.728Z,15.77
2018-01-15T07:37:28.968Z,15.97
2018-01-15T07:39:57.955Z,13.60
2018-01-15T07:42:25.448Z,20.47
2018-01-15T07:44:53.695Z,16.50
2018-01-15T07:47:21.188Z,19.83
2018-01-15T07:49:48.873Z,18.30
2018-01-15T07:52:16.394Z,18.33
2018-01-15T07:54:43.912Z,17.30
2018-01-15T07:57:11.384Z,14.47
2018-01-15T07:59:38.842Z,15.47
2018-01-15T08:02:06.346Z,16.20
2018-01-15T08:04:34.605Z,13.70
2018-01-15T08:07:02.890Z,16.27
2018-01-15T08:09:31.131Z,16.80
2018-01-15T08:11:58.650Z,14.20
2018-01-15T08:14:26.233Z,19.77
2018-01-15T08:16:53.748Z,28.27
2018-01-15T08:19:21.980Z,17.60
2018-01-15T08:21:49.457Z,15.97
2018-01-15T08:24:16.942Z,14.87
2018-01-15T08:26:45.191Z,18.03
2018-01-15T08:29:12.667Z,11.80
2018-01-15T08:31:40.924Z,49.10
2018-01-15T08:34:08.547Z,16.67
2018-01-15T08:36:36.003Z,12.70
2018-01-15T08:39:03.592Z,11.77
2018-01-15T08:41:31.906Z,14.13
2018-01-15T08:44:00.176Z,12.70
2018-01-15T08:46:28.452Z,10.37
2018-01-15T08:48:56.980Z,11.13
2018-01-15T08:51:24.514Z,9.57
2018-01-15T08:53:52.741Z,14.20
2018-01-15T08:56:20.612Z,12.10
2018-01-15T08:58:48.131Z,10.10
2018-01-15T09:01:15.986Z,11.53
2018-01-15T09:03:43.530Z,8.73
2018-01-15T09:06:11.971Z,15.57
2018-01-15T09:08:39.747Z,10.00
2018-01-15T09:11:07.788Z,14.00
2018-01-15T09:13:35.321Z,7.33
2018-01-15T09:16:03.064Z,9.33
2018-01-15T09:18:31.362Z,10.97
2018-01-15T09:20:59.634Z,19.40
2018-01-15T09:23:27.167Z,8.27
2018-01-15T09:25:54.678Z,13.00
2018-01-15T09:28:22.172Z,11.17
2018-01-15T09:30:49.652Z,11.20
2018-01-15T09:33:17.197Z,14.33
2018-01-15T09:35:44.790Z,8.83
2018-01-15T09:38:13.186Z,10.47
2018-01-15T09:40:41.298Z,9.60
2018-01-15T09:43:08.774Z,9.67
2018-01-15T09:45:36.961Z,11.40
2018-01-15T09:48:04.500Z,11.80
2018-01-15T09:50:32.153Z,10.67
2018-01-15T09:52:59.625Z,12.57
2018-01-15T09:55:27.887Z,13.00
2018-01-15T09:57:55.498Z,15.50
2018-01-15T10:00:23.003Z,9.30
2018-01-15T10:02:51.479Z,8.87
2018-01-15T10:05:19.110Z,9.97
2018-01-15T10:07:48.082Z,12.87
2018-01-15T10:10:15.874Z,9.33
2018-01-15T10:12:43.960Z,9.93
2018-01-15T10:15:11.670Z,9.37
2018-01-15T10:17:39.163Z,11.00
2018-01-15T10:20:06.836Z,10.00
2018-01-15T10:22:34.387Z,10.67
2018-01-15T10:25:02.227Z,11.03
2018-01-15T10:27:29.731Z,12.47
2018-01-15T10:29:57.225Z,11.40
2018-01-15T10:32:25.812Z,10.27
2018-01-15T10:34:54.116Z,12.40
2018-01-15T10:37:21.631Z,9.40
2018-01-15T10:39:49.122Z,7.93
2018-01-15T10:42:16.688Z,11.13
2018-01-15T10:44:44.182Z,15.27
2018-01-15T10:47:11.666Z,10.30
2018-01-15T10:49:39.146Z,12.10
2018-01-15T10:52:06.685Z,9.53
2018-01-15T10:54:34.221Z,15.67
2018-01-15T10:57:01.698Z,10.43
2018-01-15T10:59:29.199Z,13.67
2018-01-15T11:01:57.552Z,9.90
2018-01-15T11:04:25.022Z,10.97
2018-01-15T11:06:52.536Z,12.80
2018-01-15T11:09:20.081Z,11.10
2018-01-15T11:11:47.558Z,13.30
2018-01-15T11:14:16.456Z,9.50
2018-01-15T11:16:43.991Z,6.93
2018-01-15T11:19:12.282Z,8.70
2018-01-15T11:21:39.771Z,7.37
2018-01-15T11:24:07.282Z,7.60
2018-01-15T11:26:35.531Z,7.30
2018-01-15T11:29:03.059Z,6.33
2018-01-15T11:31:30.662Z,6.57
2018-01-15T11:33:58.930Z,9.40
2018-01-15T11:36:26.561Z,5.37
2018-01-15T11:38:54.044Z,5.70
2018-01-15T11:41:22.297Z,6.43
2018-01-15T11:43:49.981Z,5.30
2018-01-15T11:46:17.505Z,5.23
2018-01-15T11:48:44.993Z,4.70
2018-01-15T11:51:12.457Z,4.00
2018-01-15T11:53:40.037Z,3.97
2018-01-15T11:56:07.523Z,4.03
2018-01-15T11:58:35.058Z,4.80
2018-01-15T12:01:03.279Z,4.47
2018-01-15T12:03:30.746Z,4.27
2018-01-15T12:05:58.227Z,3.80
2018-01-15T12:08:25.691Z,3.90
2018-01-15T12:10:53.153Z,4.00
2018-01-15T12:13:20.623Z,4.70
2018-01-15T12:15:48.897Z,5.20
2018-01-15T12:18:16.428Z,5.10
2018-01-15T12:20:45.051Z,8.80
2018-01-15T12:23:13.389Z,7.00
2018-01-15T12:25:40.880Z,4.93
2018-01-15T12:28:09.632Z,5.17
2018-01-15T12:30:37.177Z,5.20
2018-01-15T12:33:05.044Z,5.60
2018-01-15T12:35:32.617Z,5.67
2018-01-15T12:38:00.931Z,5.57
2018-01-15T12:40:28.426Z,8.40
2018-01-15T12:42:55.898Z,10.90
2018-01-15T12:45:23.622Z,6.20
2018-01-15T12:47:51.865Z,9.90
2018-01-15T12:50:19.419Z,9.27
2018-01-15T12:52:46.890Z,10.47
2018-01-15T12:55:14.449Z,11.17
2018-01-15T12:57:42.248Z,13.20
2018-01-15T13:00:11.394Z,8.07
2018-01-15T13:02:39.223Z,12.77
2018-01-15T13:05:06.742Z,7.77
2018-01-15T13:07:46.193Z,10.00
2018-01-15T13:10:14.459Z,6.20
2018-01-15T13:12:42.135Z,7.40
2018-01-15T13:15:10.142Z,6.10
2018-01-15T13:17:37.766Z,8.00
2018-01-15T13:20:05.304Z,5.20
2018-01-15T13:22:33.094Z,5.70
2018-01-15T13:25:00.775Z,7.00
2018-01-15T13:27:28.362Z,4.50
2018-01-15T13:29:55.832Z,5.73
2018-01-15T13:32:24.108Z,6.17
2018-01-15T13:34:52.527Z,5.50
2018-01-15T13:37:20.233Z,5.80
2018-01-15T13:39:48.014Z,5.37
2018-01-15T13:42:15.687Z,5.87
2018-01-15T13:44:44.194Z,5.57
2018-01-15T13:47:11.690Z,6.53
2018-01-15T13:49:39.180Z,4.73
2018-01-15T13:52:06.839Z,6.17
2018-01-15T13:54:34.339Z,4.90
2018-01-15T13:57:02.200Z,5.00
2018-01-15T13:59:29.758Z,3.67
2018-01-15T14:01:57.222Z,4.97
2018-01-15T14:04:24.833Z,4.17
2018-01-15T14:06:52.307Z,5.10
2018-01-15T14:09:19.778Z,7.20
2018-01-15T14:11:47.548Z,5.10
2018-01-15T14:14:15.119Z,5.00
2018-01-15T14:16:42.661Z,4.53
2018-01-15T14:19:10.195Z,5.27
2018-01-15T14:21:37.879Z,3.90
2018-01-15T14:24:05.383Z,4.23
2018-01-15T14:26:33.793Z,4.33
2018-01-15T14:29:01.386Z,3.10
2018-01-15T14:31:29.443Z,4.00
2018-01-15T14:33:57.012Z,4.30
2018-01-15T14:36:24.754Z,5.50
2018-01-15T14:38:52.220Z,3.37
2018-01-15T14:41:20.241Z,2.70
2018-01-15T14:43:48.088Z,3.50
2018-01-15T14:46:18.557Z,3.63
2018-01-15T14:48:46.217Z,3.50
2018-01-15T14:51:14.865Z,3.60
2018-01-15T14:53:42.360Z,3.70
2018-01-15T14:56:12.035Z,9.50
2018-01-15T14:58:43.645Z,4.30
2018-01-15T15:01:15.564Z,3.30
2018-01-15T15:03:43.821Z,2.90
2018-01-15T15:06:11.297Z,9.13
2018-01-15T15:08:40.202Z,3.60
2018-01-15T15:11:07.898Z,4.20
2018-01-15T15:13:37.632Z,3.47
2018-01-15T15:16:06.344Z,3.47
2018-01-15T15:18:34.286Z,3.57
2018-01-15T15:21:02.781Z,2.83
2018-01-15T15:23:30.253Z,3.33
2018-01-15T15:25:58.941Z,2.27
2018-01-15T15:28:27.475Z,3.00
2018-01-15T15:30:55.877Z,2.60
2018-01-15T15:33:23.348Z,2.60
2018-01-15T15:35:50.818Z,2.87
2018-01-15T15:38:18.306Z,2.47
2018-01-15T15:40:46.570Z,2.40
2018-01-15T15:43:14.448Z,4.23
2018-01-15T15:45:43.152Z,5.07
2018-01-15T15:48:10.746Z,3.73
2018-01-15T15:50:38.621Z,1.83
2018-01-15T15:53:06.128Z,3.53
2018-01-15T15:55:34.409Z,2.13
2018-01-15T15:58:02.295Z,3.07
2018-01-15T16:00:31.213Z,2.27
2018-01-15T16:02:59.800Z,2.20
2018-01-15T16:05:27.285Z,2.10
2018-01-15T16:07:55.899Z,2.70
2018-01-15T16:10:24.138Z,2.97
2018-01-15T16:12:51.683Z,4.43
2018-01-15T16:15:20.006Z,2.40
2018-01-15T16:17:47.462Z,2.17
2018-01-15T16:20:14.955Z,2.37
2018-01-15T16:22:54.354Z,2.00
2018-01-15T16:25:21.864Z,2.07
2018-01-15T16:27:49.322Z,2.13
2018-01-15T16:30:16.885Z,2.90
2018-01-15T16:32:48.928Z,2.13
2018-01-15T16:35:16.536Z,2.30
2018-01-15T16:37:44.015Z,2.47
2018-01-15T16:40:11.506Z,2.00
2018-01-15T16:42:39.740Z,1.50
2018-01-15T16:45:07.490Z,1.77
2018-01-15T16:47:34.973Z,2.20
2018-01-15T16:52:59.244Z,1.77
2018-01-15T16:55:26.759Z,2.27
2018-01-15T16:57:54.412Z,4.10
2018-01-15T17:00:22.045Z,2.23
2018-01-15T17:02:50.491Z,1.53
2018-01-15T17:05:18.113Z,1.73
2018-01-15T17:07:46.616Z,1.20
2018-01-15T17:10:14.970Z,3.80
2018-01-15T17:12:42.463Z,1.60
2018-01-15T17:15:10.159Z,2.90
2018-01-15T17:17:38.322Z,1.53
2018-01-15T17:20:06.642Z,1.53
2018-01-15T17:22:34.206Z,1.97
2018-01-15T17:25:03.065Z,1.30
2018-01-15T17:27:31.426Z,1.50
2018-01-15T17:30:00.316Z,1.50
2018-01-15T17:32:28.397Z,1.30
2018-01-15T17:34:56.780Z,1.00
2018-01-15T17:37:24.335Z,1.70
2018-01-15T17:39:52.298Z,1.73
2018-01-15T17:42:19.864Z,0.90
2018-01-15T17:44:47.705Z,1.33
2018-01-15T17:47:15.214Z,1.70
2018-01-15T17:49:42.682Z,1.53
2018-01-15T17:52:10.202Z,1.10
2018-01-15T17:54:37.690Z,2.43
2018-01-15T17:57:05.173Z,1.17
2018-01-15T17:59:32.650Z,1.10
2018-01-15T18:02:00.122Z,1.70
2018-01-15T18:04:27.608Z,1.20
2018-01-15T18:06:55.105Z,1.67
2018-01-15T18:09:22.609Z,1.17
2018-01-15T18:11:50.087Z,3.43
2018-01-15T18:14:17.590Z,3.53
2018-01-15T18:16:46.044Z,1.00
2018-01-15T18:19:13.521Z,1.20
2018-01-15T18:21:41.065Z,1.30
2018-01-15T18:24:08.613Z,2.30
2018-01-15T18:26:36.354Z,1.20
2018-01-15T18:29:03.825Z,1.50
2018-01-15T18:31:32.073Z,1.23
2018-01-15T18:33:59.656Z,2.40
2018-01-15T18:36:27.520Z,1.20
2018-01-15T18:38:55.043Z,1.50
2018-01-15T18:41:23.325Z,1.10
2018-01-15T18:43:51.760Z,1.00
2018-01-15T18:46:19.385Z,1.53
2018-01-15T18:48:46.902Z,1.30
2018-01-15T18:51:14.391Z,1.40
2018-01-15T18:53:41.857Z,1.43
2018-01-15T18:56:09.612Z,1.10
2018-01-15T18:58:37.160Z,1.10
2018-01-15T19:01:04.740Z,0.90
2018-01-15T19:03:32.256Z,1.10
2018-01-15T19:06:00.238Z,1.00
2018-01-15T19:08:28.502Z,1.43
2018-01-15T19:10:56.040Z,1.37
2018-01-15T19:13:23.659Z,1.10
2018-01-15T19:15:51.153Z,1.33
2018-01-15T19:18:18.913Z,1.20
2018-01-15T19:20:46.487Z,1.10
2018-01-15T19:23:13.978Z,1.53
2018-01-15T19:25:43.461Z,1.17
2018-01-15T19:28:10.954Z,3.53
2018-01-15T19:30:39.213Z,1.60
2018-01-15T19:33:06.714Z,1.40
2018-01-15T19:35:41.967Z,3.47
2018-01-15T19:38:13.778Z,4.93
2018-01-15T19:40:41.626Z,1.30
2018-01-15T19:43:16.807Z,1.20
2018-01-15T19:45:51.295Z,2.63
2018-01-15T19:48:25.743Z,1.20
2018-01-15T19:54:00.723Z,1.23
2018-01-15T19:56:33.885Z,1.00
2018-01-15T19:59:09.175Z,1.10
2018-01-15T20:01:42.491Z,13.83
2018-01-15T20:07:18.392Z,1.10
2018-01-15T20:09:52.426Z,0.80
2018-01-15T20:12:20.760Z,1.10
2018-01-15T20:14:48.247Z,1.27
2018-01-15T20:17:15.771Z,1.37
2018-01-15T20:19:43.383Z,1.50
2018-01-15T20:22:11.790Z,1.43
2018-01-15T20:24:40.121Z,1.10
2018-01-15T20:27:07.648Z,1.90
2018-01-15T20:29:35.474Z,1.40
2018-01-15T20:32:03.256Z,1.40
2018-01-15T20:34:30.785Z,1.33
2018-01-15T20:36:58.469Z,1.80
2018-01-15T20:39:26.720Z,2.00
2018-01-15T20:41:54.215Z,1.93
2018-01-15T20:44:21.791Z,2.00
2018-01-15T20:46:49.274Z,1.70
2018-01-15T20:49:16.815Z,1.40
2018-01-15T20:51:44.301Z,2.00
2018-01-15T20:54:11.802Z,3.30
2018-01-15T20:56:39.266Z,1.60
2018-01-15T20:59:06.759Z,1.70
2018-01-15T21:01:34.267Z,2.90
2018-01-15T21:04:02.537Z,11.13
2018-01-15T21:06:31.203Z,2.70
2018-01-15T21:08:58.700Z,2.77
2018-01-15T21:11:26.173Z,2.27
2018-01-15T21:13:53.647Z,2.07
2018-01-15T21:16:21.101Z,3.17
2018-01-15T21:18:48.593Z,1.43
2018-01-15T21:21:16.070Z,2.30
2018-01-15T21:23:44.344Z,1.70
2018-01-15T21:26:11.883Z,4.50
2018-01-15T21:28:39.427Z,1.80
2018-01-15T21:31:06.960Z,2.10
2018-01-15T21:33:34.500Z,2.30
2018-01-15T21:36:02.018Z,2.47
2018-01-15T21:38:29.599Z,2.60
2018-01-15T21:40:57.872Z,1.80
2018-01-15T21:43:26.907Z,2.23
2018-01-15T21:45:54.429Z,6.03
2018-01-15T21:48:21.944Z,3.40
2018-01-15T21:50:49.754Z,4.17
2018-01-15T21:53:17.404Z,4.00
2018-01-15T21:55:44.894Z,4.00
2018-01-15T21:58:12.391Z,6.47
2018-01-15T22:00:39.907Z,5.17
2018-01-15T22:03:08.162Z,4.87
2018-01-15T22:05:35.878Z,4.70
2018-01-15T22:08:03.346Z,5.10
2018-01-15T22:10:30.876Z,10.13
2018-01-15T22:12:59.163Z,4.30
2018-01-15T22:15:26.662Z,5.57
2018-01-15T22:17:54.906Z,5.30
2018-01-15T22:20:22.406Z,5.30
2018-01-15T22:22:49.885Z,9.80
2018-01-15T22:25:18.142Z,2.30
2018-01-15T22:27:45.609Z,2.73
2018-01-15T22:30:13.121Z,2.27
2018-01-15T22:32:40.581Z,3.07
2018-01-15T22:35:08.082Z,3.53
2018-01-15T22:37:35.559Z,3.40
2018-01-15T22:40:03.810Z,6.33
2018-01-15T22:42:31.287Z,6.37
2018-01-15T22:44:59.554Z,4.20
2018-01-15T22:47:27.026Z,4.97
2018-01-15T22:49:55.258Z,4.17
2018-01-15T22:52:22.737Z,6.23
2018-01-15T22:54:50.221Z,5.33
2018-01-15T22:57:18.477Z,4.87
2018-01-15T22:59:45.944Z,2.60
2018-01-15T23:02:13.481Z,3.73
2018-01-15T23:04:41.734Z,6.30
2018-01-15T23:07:09.213Z,1.97
2018-01-15T23:09:36.706Z,1.70
2018-01-15T23:12:04.946Z,4.13
2018-01-15T23:14:32.412Z,3.83
2018-01-15T23:16:59.906Z,2.40
2018-01-15T23:19:28.152Z,3.00
2018-01-15T23:21:55.630Z,4.00
2018-01-15T23:24:23.873Z,2.63
2018-01-15T23:26:52.118Z,1.80
2018-01-15T23:29:19.579Z,4.50
2018-01-15T23:31:47.065Z,2.10
2018-01-15T23:34:14.557Z,5.60
2018-01-15T23:36:42.042Z,2.83
2018-01-15T23:39:09.505Z,3.50
2018-01-15T23:41:37.017Z,2.57
2018-01-15T23:44:04.502Z,6.33
2018-01-15T23:46:32.726Z,3.13
2018-01-15T23:49:00.215Z,11.63
2018-01-15T23:51:27.682Z,5.33
2018-01-15T23:53:55.166Z,3.67
2018-01-15T23:56:22.660Z,5.60
2018-01-15T23:58:50.141Z,5.00
